sensor_id;sensor_type;location;lat;lon;timestamp;P1;durP1;ratioP1;P2;durP2;ratioP2
61096;SDS011;46977;50.936;6.908;2023-05-23T00:01:28;3.88;;;3.20;;
61096;SDS011;46977;50.936;6.908;2023-05-23T00:04:32;3.13;;;2.92;;
61096;SDS011;46977;50.936;6.908;2023-05-23T00:07:34;3.22;;;3.00;;
61096;SDS011;46977;50.936;6.908;2023-05-23T00:10:37;3.92;;;3.63;;
61096;SDS011;46977;50.936;6.908;2023-05-23T00:13:40;3.33;;;3.13;;
61096;SDS011;46977;50.936;6.908;2023-05-23T00:16:44;4.00;;;3.70;;
61096;SDS011;46977;50.936;6.908;2023-05-23T00:19:47;4.32;;;3.92;;
61096;SDS011;46977;50.936;6.908;2023-05-23T00:22:49;4.43;;;4.07;;
61096;SDS011;46977;50.936;6.908;2023-05-23T00:25:53;4.60;;;4.25;;
61096;SDS011;46977;50.936;6.908;2023-05-23T00:28:56;4.80;;;4.40;;
61096;SDS011;46977;50.936;6.908;2023-05-23T00:32:00;4.78;;;4.43;;
61096;SDS011;46977;50.936;6.908;2023-05-23T00:35:03;4.50;;;4.20;;
61096;SDS011;46977;50.936;6.908;2023-05-23T00:38:05;5.45;;;4.93;;
61096;SDS011;46977;50.936;6.908;2023-05-23T00:41:08;5.85;;;4.82;;
61096;SDS011;46977;50.936;6.908;2023-05-23T00:44:11;4.97;;;4.47;;
61096;SDS011;46977;50.936;6.908;2023-05-23T00:47:15;6.90;;;5.95;;
61096;SDS011;46977;50.936;6.908;2023-05-23T00:50:17;5.53;;;4.90;;
61096;SDS011;46977;50.936;6.908;2023-05-23T00:53:20;5.15;;;4.72;;
61096;SDS011;46977;50.936;6.908;2023-05-23T00:56:23;6.13;;;5.60;;
61096;SDS011;46977;50.936;6.908;2023-05-23T00:59:27;5.75;;;5.13;;
61096;SDS011;46977;50.936;6.908;2023-05-23T01:02:31;6.10;;;5.57;;
61096;SDS011;46977;50.936;6.908;2023-05-23T01:05:37;5.38;;;4.97;;
61096;SDS011;46977;50.936;6.908;2023-05-23T01:08:41;6.45;;;5.93;;
61096;SDS011;46977;50.936;6.908;2023-05-23T01:11:44;7.85;;;5.88;;
61096;SDS011;46977;50.936;6.908;2023-05-23T01:14:55;5.15;;;4.75;;
61096;SDS011;46977;50.936;6.908;2023-05-23T01:18:04;4.82;;;4.45;;
61096;SDS011;46977;50.936;6.908;2023-05-23T01:21:10;6.10;;;5.63;;
61096;SDS011;46977;50.936;6.908;2023-05-23T01:24:23;5.95;;;5.25;;
61096;SDS011;46977;50.936;6.908;2023-05-23T01:30:59;5.95;;;5.35;;
61096;SDS011;46977;50.936;6.908;2023-05-23T01:34:03;7.72;;;5.35;;
61096;SDS011;46977;50.936;6.908;2023-05-23T01:37:07;5.97;;;5.47;;
61096;SDS011;46977;50.936;6.908;2023-05-23T01:40:10;6.63;;;5.88;;
61096;SDS011;46977;50.936;6.908;2023-05-23T01:43:14;6.22;;;5.70;;
61096;SDS011;46977;50.936;6.908;2023-05-23T01:46:16;5.82;;;5.32;;
61096;SDS011;46977;50.936;6.908;2023-05-23T01:49:19;6.30;;;5.68;;
61096;SDS011;46977;50.936;6.908;2023-05-23T01:52:23;4.50;;;4.20;;
61096;SDS011;46977;50.936;6.908;2023-05-23T01:55:27;3.65;;;3.35;;
61096;SDS011;46977;50.936;6.908;2023-05-23T01:58:31;3.17;;;2.88;;
61096;SDS011;46977;50.936;6.908;2023-05-23T02:01:33;2.25;;;2.15;;
61096;SDS011;46977;50.936;6.908;2023-05-23T02:04:36;2.00;;;1.90;;
61096;SDS011;46977;50.936;6.908;2023-05-23T02:07:38;1.95;;;1.85;;
61096;SDS011;46977;50.936;6.908;2023-05-23T02:10:41;2.08;;;1.70;;
61096;SDS011;46977;50.936;6.908;2023-05-23T02:13:44;1.60;;;1.50;;
61096;SDS011;46977;50.936;6.908;2023-05-23T02:16:47;1.60;;;1.50;;
61096;SDS011;46977;50.936;6.908;2023-05-23T02:19:49;2.05;;;1.40;;
61096;SDS011;46977;50.936;6.908;2023-05-23T02:22:52;1.60;;;1.50;;
61096;SDS011;46977;50.936;6.908;2023-05-23T02:25:54;1.38;;;1.27;;
61096;SDS011;46977;50.936;6.908;2023-05-23T02:28:58;2.13;;;1.50;;
61096;SDS011;46977;50.936;6.908;2023-05-23T02:32:00;1.42;;;1.33;;
61096;SDS011;46977;50.936;6.908;2023-05-23T02:35:03;1.73;;;1.13;;
61096;SDS011;46977;50.936;6.908;2023-05-23T02:38:07;1.70;;;1.60;;
61096;SDS011;46977;50.936;6.908;2023-05-23T02:41:09;2.33;;;1.35;;
61096;SDS011;46977;50.936;6.908;2023-05-23T02:44:13;1.40;;;1.30;;
61096;SDS011;46977;50.936;6.908;2023-05-23T02:47:16;2.22;;;1.40;;
61096;SDS011;46977;50.936;6.908;2023-05-23T02:50:18;1.65;;;1.55;;
61096;SDS011;46977;50.936;6.908;2023-05-23T02:53:20;1.70;;;1.60;;
61096;SDS011;46977;50.936;6.908;2023-05-23T02:56:23;2.03;;;1.55;;
61096;SDS011;46977;50.936;6.908;2023-05-23T02:59:29;2.08;;;1.40;;
61096;SDS011;46977;50.936;6.908;2023-05-23T03:02:31;2.75;;;2.25;;
61096;SDS011;46977;50.936;6.908;2023-05-23T03:05:34;1.92;;;1.77;;
61096;SDS011;46977;50.936;6.908;2023-05-23T03:08:37;1.73;;;1.63;;
61096;SDS011;46977;50.936;6.908;2023-05-23T03:11:39;1.85;;;1.50;;
61096;SDS011;46977;50.936;6.908;2023-05-23T03:14:43;2.38;;;2.22;;
61096;SDS011;46977;50.936;6.908;2023-05-23T03:17:46;2.30;;;2.20;;
61096;SDS011;46977;50.936;6.908;2023-05-23T03:20:50;3.10;;;2.72;;
61096;SDS011;46977;50.936;6.908;2023-05-23T03:23:54;2.35;;;2.17;;
61096;SDS011;46977;50.936;6.908;2023-05-23T03:26:57;3.05;;;2.85;;
61096;SDS011;46977;50.936;6.908;2023-05-23T03:30:01;3.13;;;2.92;;
61096;SDS011;46977;50.936;6.908;2023-05-23T03:33:04;2.50;;;2.30;;
61096;SDS011;46977;50.936;6.908;2023-05-23T03:36:08;2.97;;;2.60;;
61096;SDS011;46977;50.936;6.908;2023-05-23T03:39:10;3.78;;;3.47;;
61096;SDS011;46977;50.936;6.908;2023-05-23T03:51:05;6.13;;;3.45;;
61096;SDS011;46977;50.936;6.908;2023-05-23T03:54:08;2.97;;;2.67;;
61096;SDS011;46977;50.936;6.908;2023-05-23T03:57:10;4.20;;;2.70;;
61096;SDS011;46977;50.936;6.908;2023-05-23T04:00:14;3.30;;;3.10;;
61096;SDS011;46977;50.936;6.908;2023-05-23T04:03:19;3.35;;;3.05;;
61096;SDS011;46977;50.936;6.908;2023-05-23T04:06:24;3.33;;;3.03;;
61096;SDS011;46977;50.936;6.908;2023-05-23T04:09:27;2.97;;;2.78;;
61096;SDS011;46977;50.936;6.908;2023-05-23T04:12:29;4.38;;;3.03;;
61096;SDS011;46977;50.936;6.908;2023-05-23T04:15:33;2.60;;;2.35;;
61096;SDS011;46977;50.936;6.908;2023-05-23T04:18:41;2.53;;;2.17;;
61096;SDS011;46977;50.936;6.908;2023-05-23T04:21:45;3.78;;;2.35;;
61096;SDS011;46977;50.936;6.908;2023-05-23T04:24:50;2.05;;;1.95;;
61096;SDS011;46977;50.936;6.908;2023-05-23T04:27:55;2.13;;;1.90;;
61096;SDS011;46977;50.936;6.908;2023-05-23T04:30:58;1.80;;;1.70;;
61096;SDS011;46977;50.936;6.908;2023-05-23T04:34:03;2.92;;;2.63;;
61096;SDS011;46977;50.936;6.908;2023-05-23T04:37:12;2.30;;;1.92;;
61096;SDS011;46977;50.936;6.908;2023-05-23T04:40:15;3.03;;;2.05;;
61096;SDS011;46977;50.936;6.908;2023-05-23T04:43:34;2.55;;;2.22;;
61096;SDS011;46977;50.936;6.908;2023-05-23T04:46:53;4.47;;;2.42;;
61096;SDS011;46977;50.936;6.908;2023-05-23T04:50:03;3.13;;;2.50;;
61096;SDS011;46977;50.936;6.908;2023-05-23T04:53:08;2.45;;;2.25;;
61096;SDS011;46977;50.936;6.908;2023-05-23T04:56:11;3.15;;;2.75;;
61096;SDS011;46977;50.936;6.908;2023-05-23T04:59:14;3.22;;;2.60;;
61096;SDS011;46977;50.936;6.908;2023-05-23T05:02:16;2.47;;;2.28;;
61096;SDS011;46977;50.936;6.908;2023-05-23T05:05:19;3.40;;;2.88;;
61096;SDS011;46977;50.936;6.908;2023-05-23T05:08:23;2.88;;;2.47;;
61096;SDS011;46977;50.936;6.908;2023-05-23T05:11:26;2.83;;;2.28;;
61096;SDS011;46977;50.936;6.908;2023-05-23T05:14:29;3.28;;;2.35;;
61096;SDS011;46977;50.936;6.908;2023-05-23T05:17:32;3.15;;;2.33;;
61096;SDS011;46977;50.936;6.908;2023-05-23T05:20:42;2.65;;;2.20;;
61096;SDS011;46977;50.936;6.908;2023-05-23T05:23:45;3.78;;;2.42;;
61096;SDS011;46977;50.936;6.908;2023-05-23T05:26:50;3.30;;;2.50;;
61096;SDS011;46977;50.936;6.908;2023-05-23T05:29:52;2.33;;;2.13;;
61096;SDS011;46977;50.936;6.908;2023-05-23T05:32:58;4.10;;;2.38;;
61096;SDS011;46977;50.936;6.908;2023-05-23T05:36:04;3.40;;;3.08;;
61096;SDS011;46977;50.936;6.908;2023-05-23T05:39:09;2.90;;;2.40;;
61096;SDS011;46977;50.936;6.908;2023-05-23T05:42:12;2.40;;;2.20;;
61096;SDS011;46977;50.936;6.908;2023-05-23T05:45:14;3.63;;;2.30;;
61096;SDS011;46977;50.936;6.908;2023-05-23T05:48:19;2.75;;;2.55;;
61096;SDS011;46977;50.936;6.908;2023-05-23T05:51:22;3.97;;;3.00;;
61096;SDS011;46977;50.936;6.908;2023-05-23T05:54:26;2.95;;;2.70;;
61096;SDS011;46977;50.936;6.908;2023-05-23T05:57:28;2.67;;;2.30;;
61096;SDS011;46977;50.936;6.908;2023-05-23T06:00:31;5.65;;;2.95;;
61096;SDS011;46977;50.936;6.908;2023-05-23T06:03:33;4.45;;;2.88;;
61096;SDS011;46977;50.936;6.908;2023-05-23T06:06:36;4.03;;;2.97;;
61096;SDS011;46977;50.936;6.908;2023-05-23T06:09:40;4.32;;;3.80;;
61096;SDS011;46977;50.936;6.908;2023-05-23T06:12:43;5.70;;;3.40;;
61096;SDS011;46977;50.936;6.908;2023-05-23T06:15:46;4.03;;;3.45;;
61096;SDS011;46977;50.936;6.908;2023-05-23T06:18:49;5.25;;;3.30;;
61096;SDS011;46977;50.936;6.908;2023-05-23T06:21:52;3.33;;;3.13;;
61096;SDS011;46977;50.936;6.908;2023-05-23T06:24:57;4.15;;;3.53;;
61096;SDS011;46977;50.936;6.908;2023-05-23T06:28:00;3.97;;;3.60;;
61096;SDS011;46977;50.936;6.908;2023-05-23T06:31:04;5.03;;;3.42;;
61096;SDS011;46977;50.936;6.908;2023-05-23T06:34:07;4.80;;;3.53;;
61096;SDS011;46977;50.936;6.908;2023-05-23T06:37:09;4.97;;;3.90;;
61096;SDS011;46977;50.936;6.908;2023-05-23T06:40:13;4.32;;;3.92;;
61096;SDS011;46977;50.936;6.908;2023-05-23T06:43:15;3.97;;;3.28;;
61096;SDS011;46977;50.936;6.908;2023-05-23T06:46:20;5.38;;;3.50;;
61096;SDS011;46977;50.936;6.908;2023-05-23T06:49:23;4.25;;;3.28;;
61096;SDS011;46977;50.936;6.908;2023-05-23T06:52:26;6.53;;;3.35;;
61096;SDS011;46977;50.936;6.908;2023-05-23T06:55:32;5.75;;;3.05;;
61096;SDS011;46977;50.936;6.908;2023-05-23T06:58:35;4.75;;;3.75;;
61096;SDS011;46977;50.936;6.908;2023-05-23T07:01:38;5.38;;;3.45;;
61096;SDS011;46977;50.936;6.908;2023-05-23T07:04:40;3.75;;;3.38;;
61096;SDS011;46977;50.936;6.908;2023-05-23T07:07:50;3.58;;;3.28;;
61096;SDS011;46977;50.936;6.908;2023-05-23T07:10:54;2.63;;;2.33;;
61096;SDS011;46977;50.936;6.908;2023-05-23T07:14:04;3.00;;;2.70;;
61096;SDS011;46977;50.936;6.908;2023-05-23T07:17:16;3.40;;;2.72;;
61096;SDS011;46977;50.936;6.908;2023-05-23T07:20:20;3.30;;;3.00;;
61096;SDS011;46977;50.936;6.908;2023-05-23T07:23:26;3.17;;;2.88;;
61096;SDS011;46977;50.936;6.908;2023-05-23T07:26:34;4.05;;;3.00;;
61096;SDS011;46977;50.936;6.908;2023-05-23T07:29:37;3.38;;;3.17;;
61096;SDS011;46977;50.936;6.908;2023-05-23T07:32:42;5.10;;;3.47;;
61096;SDS011;46977;50.936;6.908;2023-05-23T07:35:48;3.03;;;2.72;;
61096;SDS011;46977;50.936;6.908;2023-05-23T07:38:50;2.55;;;2.35;;
61096;SDS011;46977;50.936;6.908;2023-05-23T07:41:55;5.10;;;3.05;;
61096;SDS011;46977;50.936;6.908;2023-05-23T07:44:57;2.92;;;2.70;;
61096;SDS011;46977;50.936;6.908;2023-05-23T07:48:00;3.03;;;2.72;;
61096;SDS011;46977;50.936;6.908;2023-05-23T07:51:05;3.63;;;3.33;;
61096;SDS011;46977;50.936;6.908;2023-05-23T07:54:08;3.35;;;2.80;;
61096;SDS011;46977;50.936;6.908;2023-05-23T07:57:15;3.00;;;2.65;;
61096;SDS011;46977;50.936;6.908;2023-05-23T08:00:18;4.93;;;2.50;;
61096;SDS011;46977;50.936;6.908;2023-05-23T08:03:26;2.83;;;2.53;;
61096;SDS011;46977;50.936;6.908;2023-05-23T08:06:38;3.20;;;2.92;;
61096;SDS011;46977;50.936;6.908;2023-05-23T08:10:00;4.03;;;2.80;;
61096;SDS011;46977;50.936;6.908;2023-05-23T08:13:04;4.57;;;3.33;;
61096;SDS011;46977;50.936;6.908;2023-05-23T08:16:13;2.85;;;2.65;;
61096;SDS011;46977;50.936;6.908;2023-05-23T08:19:16;4.40;;;2.38;;
61096;SDS011;46977;50.936;6.908;2023-05-23T08:22:20;3.15;;;2.70;;
61096;SDS011;46977;50.936;6.908;2023-05-23T08:25:22;5.68;;;3.47;;
61096;SDS011;46977;50.936;6.908;2023-05-23T08:28:27;6.47;;;2.83;;
61096;SDS011;46977;50.936;6.908;2023-05-23T08:31:30;4.38;;;2.70;;
61096;SDS011;46977;50.936;6.908;2023-05-23T08:34:34;3.53;;;3.22;;
61096;SDS011;46977;50.936;6.908;2023-05-23T08:37:37;4.50;;;3.00;;
61096;SDS011;46977;50.936;6.908;2023-05-23T08:40:40;6.55;;;2.88;;
61096;SDS011;46977;50.936;6.908;2023-05-23T08:43:48;4.78;;;3.50;;
61096;SDS011;46977;50.936;6.908;2023-05-23T08:46:58;4.15;;;3.40;;
61096;SDS011;46977;50.936;6.908;2023-05-23T08:50:29;3.30;;;3.00;;
61096;SDS011;46977;50.936;6.908;2023-05-23T08:53:31;4.57;;;3.53;;
61096;SDS011;46977;50.936;6.908;2023-05-23T08:56:39;4.63;;;3.65;;
61096;SDS011;46977;50.936;6.908;2023-05-23T08:59:44;5.00;;;3.42;;
61096;SDS011;46977;50.936;6.908;2023-05-23T09:02:48;6.03;;;3.88;;
61096;SDS011;46977;50.936;6.908;2023-05-23T09:06:15;3.90;;;3.45;;
61096;SDS011;46977;50.936;6.908;2023-05-23T09:09:20;6.95;;;4.07;;
61096;SDS011;46977;50.936;6.908;2023-05-23T09:12:23;8.32;;;4.35;;
61096;SDS011;46977;50.936;6.908;2023-05-23T09:15:29;7.18;;;4.45;;
61096;SDS011;46977;50.936;6.908;2023-05-23T09:18:33;5.65;;;3.83;;
61096;SDS011;46977;50.936;6.908;2023-05-23T09:21:41;5.93;;;3.70;;
61096;SDS011;46977;50.936;6.908;2023-05-23T09:24:58;4.72;;;4.07;;
61096;SDS011;46977;50.936;6.908;2023-05-23T09:28:02;7.30;;;5.07;;
61096;SDS011;46977;50.936;6.908;2023-05-23T09:31:10;4.82;;;4.40;;
61096;SDS011;46977;50.936;6.908;2023-05-23T09:34:13;4.57;;;3.30;;
61096;SDS011;46977;50.936;6.908;2023-05-23T09:37:16;7.28;;;3.63;;
61096;SDS011;46977;50.936;6.908;2023-05-23T09:40:20;5.07;;;3.65;;
61096;SDS011;46977;50.936;6.908;2023-05-23T09:43:29;4.97;;;3.33;;
61096;SDS011;46977;50.936;6.908;2023-05-23T09:46:35;6.25;;;3.22;;
61096;SDS011;46977;50.936;6.908;2023-05-23T09:49:39;5.05;;;3.40;;
61096;SDS011;46977;50.936;6.908;2023-05-23T09:52:42;5.60;;;3.47;;
61096;SDS011;46977;50.936;6.908;2023-05-23T09:55:44;5.05;;;3.38;;
61096;SDS011;46977;50.936;6.908;2023-05-23T09:58:48;5.43;;;3.70;;
61096;SDS011;46977;50.936;6.908;2023-05-23T10:01:53;6.80;;;3.53;;
61096;SDS011;46977;50.936;6.908;2023-05-23T10:04:58;6.20;;;4.15;;
61096;SDS011;46977;50.936;6.908;2023-05-23T10:08:01;5.97;;;3.58;;
61096;SDS011;46977;50.936;6.908;2023-05-23T10:14:50;6.18;;;4.22;;
61096;SDS011;46977;50.936;6.908;2023-05-23T10:18:04;6.10;;;3.50;;
61096;SDS011;46977;50.936;6.908;2023-05-23T10:21:10;3.20;;;2.90;;
61096;SDS011;46977;50.936;6.908;2023-05-23T10:24:13;5.18;;;3.55;;
61096;SDS011;46977;50.936;6.908;2023-05-23T10:27:16;3.35;;;3.05;;
61096;SDS011;46977;50.936;6.908;2023-05-23T10:30:20;6.07;;;2.65;;
61096;SDS011;46977;50.936;6.908;2023-05-23T10:33:24;3.30;;;2.60;;
61096;SDS011;46977;50.936;6.908;2023-05-23T10:36:28;3.70;;;2.50;;
61096;SDS011;46977;50.936;6.908;2023-05-23T10:39:39;3.60;;;2.00;;
61096;SDS011;46977;50.936;6.908;2023-05-23T10:42:49;3.17;;;2.40;;
61096;SDS011;46977;50.936;6.908;2023-05-23T10:45:54;4.38;;;2.10;;
61096;SDS011;46977;50.936;6.908;2023-05-23T10:48:57;3.90;;;3.00;;
61096;SDS011;46977;50.936;6.908;2023-05-23T10:52:00;3.05;;;2.13;;
61096;SDS011;46977;50.936;6.908;2023-05-23T10:55:02;4.03;;;2.20;;
61096;SDS011;46977;50.936;6.908;2023-05-23T10:58:15;3.03;;;1.83;;
61096;SDS011;46977;50.936;6.908;2023-05-23T11:01:20;3.20;;;2.35;;
61096;SDS011;46977;50.936;6.908;2023-05-23T11:04:25;3.53;;;2.30;;
61096;SDS011;46977;50.936;6.908;2023-05-23T11:07:30;3.13;;;2.35;;
61096;SDS011;46977;50.936;6.908;2023-05-23T11:13:57;3.38;;;2.38;;
61096;SDS011;46977;50.936;6.908;2023-05-23T11:17:14;4.22;;;2.03;;
61096;SDS011;46977;50.936;6.908;2023-05-23T11:20:19;5.45;;;2.10;;
61096;SDS011;46977;50.936;6.908;2023-05-23T11:23:24;3.83;;;2.38;;
61096;SDS011;46977;50.936;6.908;2023-05-23T11:26:41;3.17;;;2.15;;
61096;SDS011;46977;50.936;6.908;2023-05-23T11:29:58;3.85;;;2.30;;
61096;SDS011;46977;50.936;6.908;2023-05-23T11:33:05;2.25;;;2.05;;
61096;SDS011;46977;50.936;6.908;2023-05-23T11:36:10;2.42;;;1.92;;
61096;SDS011;46977;50.936;6.908;2023-05-23T11:39:13;3.25;;;2.95;;
61096;SDS011;46977;50.936;6.908;2023-05-23T11:42:16;2.75;;;2.35;;
61096;SDS011;46977;50.936;6.908;2023-05-23T11:45:18;5.13;;;3.10;;
61096;SDS011;46977;50.936;6.908;2023-05-23T11:48:21;3.67;;;2.78;;
61096;SDS011;46977;50.936;6.908;2023-05-23T11:51:25;5.03;;;3.40;;
61096;SDS011;46977;50.936;6.908;2023-05-23T11:54:27;4.25;;;2.78;;
61096;SDS011;46977;50.936;6.908;2023-05-23T11:57:30;3.35;;;2.95;;
61096;SDS011;46977;50.936;6.908;2023-05-23T12:00:32;4.03;;;3.72;;
61096;SDS011;46977;50.936;6.908;2023-05-23T12:03:44;2.72;;;2.53;;
61096;SDS011;46977;50.936;6.908;2023-05-23T12:06:49;2.65;;;2.28;;
61096;SDS011;46977;50.936;6.908;2023-05-23T12:09:54;3.15;;;2.80;;
61096;SDS011;46977;50.936;6.908;2023-05-23T12:12:56;3.38;;;3.08;;
61096;SDS011;46977;50.936;6.908;2023-05-23T12:15:59;4.32;;;2.65;;
61096;SDS011;46977;50.936;6.908;2023-05-23T12:19:03;5.60;;;3.72;;
61096;SDS011;46977;50.936;6.908;2023-05-23T12:22:08;4.97;;;3.22;;
61096;SDS011;46977;50.936;6.908;2023-05-23T12:25:11;3.72;;;3.35;;
61096;SDS011;46977;50.936;6.908;2023-05-23T12:28:13;4.70;;;3.08;;
61096;SDS011;46977;50.936;6.908;2023-05-23T12:31:17;2.65;;;2.20;;
61096;SDS011;46977;50.936;6.908;2023-05-23T12:34:20;2.95;;;1.83;;
61096;SDS011;46977;50.936;6.908;2023-05-23T12:37:24;2.53;;;1.70;;
61096;SDS011;46977;50.936;6.908;2023-05-23T12:40:27;4.13;;;2.33;;
61096;SDS011;46977;50.936;6.908;2023-05-23T12:43:29;3.10;;;2.75;;
61096;SDS011;46977;50.936;6.908;2023-05-23T12:46:32;3.88;;;2.67;;
61096;SDS011;46977;50.936;6.908;2023-05-23T12:49:34;3.10;;;2.83;;
61096;SDS011;46977;50.936;6.908;2023-05-23T12:52:38;3.95;;;3.03;;
61096;SDS011;46977;50.936;6.908;2023-05-23T12:55:41;4.93;;;3.00;;
61096;SDS011;46977;50.936;6.908;2023-05-23T12:58:43;3.75;;;2.40;;
61096;SDS011;46977;50.936;6.908;2023-05-23T13:01:46;3.67;;;2.30;;
61096;SDS011;46977;50.936;6.908;2023-05-23T13:04:48;5.18;;;1.58;;
61096;SDS011;46977;50.936;6.908;2023-05-23T13:07:52;3.65;;;2.35;;
61096;SDS011;46977;50.936;6.908;2023-05-23T13:10:55;2.10;;;1.75;;
61096;SDS011;46977;50.936;6.908;2023-05-23T13:13:58;5.50;;;1.60;;
61096;SDS011;46977;50.936;6.908;2023-05-23T13:17:00;4.50;;;1.85;;
61096;SDS011;46977;50.936;6.908;2023-05-23T13:20:03;3.95;;;2.25;;
61096;SDS011;46977;50.936;6.908;2023-05-23T13:23:08;2.58;;;1.73;;
61096;SDS011;46977;50.936;6.908;2023-05-23T13:26:10;3.50;;;1.83;;
61096;SDS011;46977;50.936;6.908;2023-05-23T13:29:13;2.83;;;2.42;;
61096;SDS011;46977;50.936;6.908;2023-05-23T13:32:15;4.20;;;1.73;;
61096;SDS011;46977;50.936;6.908;2023-05-23T13:35:17;3.03;;;1.65;;
61096;SDS011;46977;50.936;6.908;2023-05-23T13:38:21;2.65;;;1.63;;
61096;SDS011;46977;50.936;6.908;2023-05-23T13:41:28;4.00;;;2.10;;
61096;SDS011;46977;50.936;6.908;2023-05-23T13:44:30;4.00;;;1.88;;
61096;SDS011;46977;50.936;6.908;2023-05-23T13:47:33;2.53;;;1.95;;
61096;SDS011;46977;50.936;6.908;2023-05-23T13:50:36;1.83;;;1.17;;
61096;SDS011;46977;50.936;6.908;2023-05-23T13:53:40;4.65;;;1.30;;
61096;SDS011;46977;50.936;6.908;2023-05-23T13:56:42;4.00;;;1.45;;
61096;SDS011;46977;50.936;6.908;2023-05-23T13:59:45;3.88;;;1.10;;
61096;SDS011;46977;50.936;6.908;2023-05-23T14:02:47;4.57;;;1.50;;
61096;SDS011;46977;50.936;6.908;2023-05-23T14:05:50;3.47;;;2.20;;
61096;SDS011;46977;50.936;6.908;2023-05-23T14:08:53;4.95;;;2.90;;
61096;SDS011;46977;50.936;6.908;2023-05-23T14:11:57;3.75;;;2.80;;
61096;SDS011;46977;50.936;6.908;2023-05-23T14:14:59;4.55;;;3.17;;
61096;SDS011;46977;50.936;6.908;2023-05-23T14:18:01;4.68;;;3.30;;
61096;SDS011;46977;50.936;6.908;2023-05-23T14:21:04;6.20;;;3.65;;
61096;SDS011;46977;50.936;6.908;2023-05-23T14:24:08;2.65;;;2.40;;
61096;SDS011;46977;50.936;6.908;2023-05-23T14:27:10;4.38;;;2.42;;
61096;SDS011;46977;50.936;6.908;2023-05-23T14:30:13;5.53;;;3.88;;
61096;SDS011;46977;50.936;6.908;2023-05-23T14:33:16;5.47;;;3.78;;
61096;SDS011;46977;50.936;6.908;2023-05-23T14:36:19;6.50;;;4.22;;
61096;SDS011;46977;50.936;6.908;2023-05-23T14:39:22;5.20;;;3.17;;
61096;SDS011;46977;50.936;6.908;2023-05-23T14:42:26;4.68;;;2.65;;
61096;SDS011;46977;50.936;6.908;2023-05-23T14:45:28;4.05;;;3.08;;
61096;SDS011;46977;50.936;6.908;2023-05-23T14:48:31;4.38;;;3.60;;
61096;SDS011;46977;50.936;6.908;2023-05-23T14:51:33;3.65;;;2.90;;
61096;SDS011;46977;50.936;6.908;2023-05-23T14:54:52;3.42;;;3.00;;
61096;SDS011;46977;50.936;6.908;2023-05-23T14:57:55;4.57;;;3.13;;
61096;SDS011;46977;50.936;6.908;2023-05-23T15:00:58;4.00;;;2.28;;
61096;SDS011;46977;50.936;6.908;2023-05-23T15:04:01;2.75;;;1.67;;
61096;SDS011;46977;50.936;6.908;2023-05-23T15:07:06;5.47;;;2.33;;
61096;SDS011;46977;50.936;6.908;2023-05-23T15:10:11;4.32;;;2.50;;
61096;SDS011;46977;50.936;6.908;2023-05-23T15:13:14;6.57;;;5.03;;
61096;SDS011;46977;50.936;6.908;2023-05-23T15:16:17;4.05;;;3.63;;
61096;SDS011;46977;50.936;6.908;2023-05-23T15:19:19;3.53;;;2.80;;
61096;SDS011;46977;50.936;6.908;2023-05-23T15:22:21;6.43;;;2.55;;
61096;SDS011;46977;50.936;6.908;2023-05-23T15:25:32;4.40;;;1.75;;
61096;SDS011;46977;50.936;6.908;2023-05-23T15:28:49;4.20;;;1.30;;
61096;SDS011;46977;50.936;6.908;2023-05-23T15:31:51;4.50;;;1.75;;
61096;SDS011;46977;50.936;6.908;2023-05-23T15:34:54;3.03;;;1.30;;
61096;SDS011;46977;50.936;6.908;2023-05-23T15:37:57;4.50;;;1.45;;
61096;SDS011;46977;50.936;6.908;2023-05-23T15:41:01;5.22;;;3.60;;
61096;SDS011;46977;50.936;6.908;2023-05-23T15:44:04;4.82;;;4.35;;
61096;SDS011;46977;50.936;6.908;2023-05-23T15:47:06;4.03;;;3.70;;
61096;SDS011;46977;50.936;6.908;2023-05-23T15:50:09;4.15;;;3.45;;
61096;SDS011;46977;50.936;6.908;2023-05-23T15:53:15;3.45;;;3.15;;
61096;SDS011;46977;50.936;6.908;2023-05-23T15:56:18;6.60;;;3.47;;
61096;SDS011;46977;50.936;6.908;2023-05-23T15:59:21;5.82;;;2.90;;
61096;SDS011;46977;50.936;6.908;2023-05-23T16:02:23;5.55;;;1.98;;
61096;SDS011;46977;50.936;6.908;2023-05-23T16:05:25;4.03;;;1.63;;
61096;SDS011;46977;50.936;6.908;2023-05-23T16:08:28;4.30;;;2.38;;
61096;SDS011;46977;50.936;6.908;2023-05-23T16:11:32;3.78;;;2.55;;
61096;SDS011;46977;50.936;6.908;2023-05-23T16:14:34;3.50;;;3.20;;
61096;SDS011;46977;50.936;6.908;2023-05-23T16:17:36;4.03;;;3.70;;
61096;SDS011;46977;50.936;6.908;2023-05-23T16:20:39;6.95;;;3.78;;
61096;SDS011;46977;50.936;6.908;2023-05-23T16:23:41;3.13;;;2.65;;
61096;SDS011;46977;50.936;6.908;2023-05-23T16:26:45;4.00;;;2.10;;
61096;SDS011;46977;50.936;6.908;2023-05-23T16:29:47;2.90;;;1.80;;
61096;SDS011;46977;50.936;6.908;2023-05-23T16:32:50;3.35;;;1.55;;
61096;SDS011;46977;50.936;6.908;2023-05-23T16:35:52;2.10;;;1.48;;
61096;SDS011;46977;50.936;6.908;2023-05-23T16:38:55;4.95;;;1.10;;
61096;SDS011;46977;50.936;6.908;2023-05-23T16:41:58;3.65;;;2.08;;
61096;SDS011;46977;50.936;6.908;2023-05-23T16:45:01;3.20;;;2.13;;
61096;SDS011;46977;50.936;6.908;2023-05-23T16:48:04;5.70;;;4.07;;
61096;SDS011;46977;50.936;6.908;2023-05-23T16:51:07;5.88;;;4.88;;
61096;SDS011;46977;50.936;6.908;2023-05-23T16:54:09;4.50;;;3.90;;
61096;SDS011;46977;50.936;6.908;2023-05-23T16:57:13;7.88;;;4.22;;
61096;SDS011;46977;50.936;6.908;2023-05-23T17:00:15;4.32;;;3.92;;
61096;SDS011;46977;50.936;6.908;2023-05-23T17:03:19;4.80;;;3.88;;
61096;SDS011;46977;50.936;6.908;2023-05-23T17:06:22;4.72;;;2.60;;
61096;SDS011;46977;50.936;6.908;2023-05-23T17:09:25;6.53;;;2.92;;
61096;SDS011;46977;50.936;6.908;2023-05-23T17:12:28;4.40;;;2.70;;
61096;SDS011;46977;50.936;6.908;2023-05-23T17:15:33;3.60;;;2.72;;
61096;SDS011;46977;50.936;6.908;2023-05-23T17:18:36;5.50;;;3.28;;
61096;SDS011;46977;50.936;6.908;2023-05-23T17:21:39;4.70;;;3.13;;
61096;SDS011;46977;50.936;6.908;2023-05-23T17:24:41;3.67;;;3.38;;
61096;SDS011;46977;50.936;6.908;2023-05-23T17:27:45;6.25;;;2.70;;
61096;SDS011;46977;50.936;6.908;2023-05-23T17:30:47;7.40;;;3.03;;
61096;SDS011;46977;50.936;6.908;2023-05-23T17:33:52;7.20;;;1.73;;
61096;SDS011;46977;50.936;6.908;2023-05-23T17:36:54;4.45;;;1.95;;
61096;SDS011;46977;50.936;6.908;2023-05-23T17:39:57;8.07;;;1.58;;
61096;SDS011;46977;50.936;6.908;2023-05-23T17:43:01;5.13;;;1.92;;
61096;SDS011;46977;50.936;6.908;2023-05-23T17:46:04;3.03;;;1.63;;
61096;SDS011;46977;50.936;6.908;2023-05-23T17:49:06;5.40;;;2.58;;
61096;SDS011;46977;50.936;6.908;2023-05-23T17:52:08;6.85;;;3.78;;
61096;SDS011;46977;50.936;6.908;2023-05-23T17:55:15;7.05;;;4.45;;
61096;SDS011;46977;50.936;6.908;2023-05-23T17:58:21;6.07;;;4.93;;
61096;SDS011;46977;50.936;6.908;2023-05-23T18:01:23;8.63;;;4.72;;
61096;SDS011;46977;50.936;6.908;2023-05-23T18:04:27;5.40;;;3.75;;
61096;SDS011;46977;50.936;6.908;2023-05-23T18:07:29;4.13;;;2.90;;
61096;SDS011;46977;50.936;6.908;2023-05-23T18:10:32;6.07;;;2.80;;
61096;SDS011;46977;50.936;6.908;2023-05-23T18:13:35;5.25;;;2.50;;
61096;SDS011;46977;50.936;6.908;2023-05-23T18:16:38;3.15;;;2.80;;
61096;SDS011;46977;50.936;6.908;2023-05-23T18:19:40;4.38;;;2.40;;
61096;SDS011;46977;50.936;6.908;2023-05-23T18:22:43;7.03;;;2.42;;
61096;SDS011;46977;50.936;6.908;2023-05-23T18:25:47;3.35;;;1.40;;
61096;SDS011;46977;50.936;6.908;2023-05-23T18:28:51;5.47;;;1.65;;
61096;SDS011;46977;50.936;6.908;2023-05-23T18:31:54;3.47;;;1.70;;
61096;SDS011;46977;50.936;6.908;2023-05-23T18:34:56;3.13;;;1.38;;
61096;SDS011;46977;50.936;6.908;2023-05-23T18:37:59;6.47;;;2.40;;
61096;SDS011;46977;50.936;6.908;2023-05-23T18:41:01;3.47;;;1.23;;
61096;SDS011;46977;50.936;6.908;2023-05-23T18:44:05;4.05;;;1.52;;
61096;SDS011;46977;50.936;6.908;2023-05-23T18:47:07;5.63;;;1.60;;
61096;SDS011;46977;50.936;6.908;2023-05-23T18:50:10;5.43;;;2.25;;